createdAt,value
2022-10-31T00:00:40.033Z,1013.59
2022-10-31T00:01:39.948Z,1013.63
2022-10-31T00:02:39.985Z,1013.59
2022-10-31T00:03:39.950Z,1013.62
2022-10-31T00:04:39.948Z,1013.61
2022-10-31T00:05:39.946Z,1013.61
2022-10-31T00:06:39.934Z,1013.63
2022-10-31T00:07:39.961Z,1013.65
2022-10-31T00:08:39.951Z,1013.70
2022-10-31T00:09:39.974Z,1013.65
2022-10-31T00:10:39.959Z,1013.64
2022-10-31T00:11:39.939Z,1013.67
2022-10-31T00:12:39.940Z,1013.67
2022-10-31T00:13:39.974Z,1013.71
2022-10-31T00:14:39.948Z,1013.72
2022-10-31T00:15:39.954Z,1013.65
2022-10-31T00:16:39.949Z,1013.67
2022-10-31T00:17:39.949Z,1013.69
2022-10-31T00:18:39.966Z,1013.69
2022-10-31T00:19:39.947Z,1013.71
2022-10-31T00:20:39.943Z,1013.71
2022-10-31T00:21:39.959Z,1013.70
2022-10-31T00:22:39.950Z,1013.67
2022-10-31T00:23:39.945Z,1013.70
2022-10-31T00:24:39.980Z,1013.69
2022-10-31T00:25:39.956Z,1013.72
2022-10-31T00:26:39.950Z,1013.70
2022-10-31T00:27:39.947Z,1013.70
2022-10-31T00:28:39.938Z,1013.73
2022-10-31T00:29:39.981Z,1013.72
2022-10-31T00:30:39.958Z,1013.72
2022-10-31T00:31:39.947Z,1013.78
2022-10-31T00:32:39.946Z,1013.77
2022-10-31T00:33:39.947Z,1013.78
2022-10-31T00:34:39.962Z,1013.83
2022-10-31T00:35:39.950Z,1013.83
2022-10-31T00:36:39.950Z,1013.81
2022-10-31T00:37:39.958Z,1013.83
2022-10-31T00:38:39.953Z,1013.83
2022-10-31T00:39:39.958Z,1013.75
2022-10-31T00:40:39.973Z,1013.86
2022-10-31T00:41:39.965Z,1013.82
2022-10-31T00:42:39.949Z,1013.86
2022-10-31T00:43:39.953Z,1013.88
2022-10-31T00:44:39.960Z,1013.89
2022-10-31T00:45:39.971Z,1013.91
2022-10-31T00:46:39.937Z,1013.92
2022-10-31T00:47:39.971Z,1013.92
2022-10-31T00:48:39.938Z,1013.93
2022-10-31T00:49:39.943Z,1013.91
2022-10-31T00:50:39.945Z,1013.92
2022-10-31T00:51:39.969Z,1013.94
2022-10-31T00:52:39.942Z,1013.92
2022-10-31T00:53:39.965Z,1013.93
2022-10-31T00:54:39.952Z,1013.92
2022-10-31T00:55:39.963Z,1013.99
2022-10-31T00:56:39.956Z,1013.94
2022-10-31T00:57:39.970Z,1013.99
2022-10-31T00:58:39.977Z,1013.98
2022-10-31T00:59:39.950Z,1014.02
2022-10-31T01:00:39.955Z,1013.98
2022-10-31T01:01:40.064Z,1014.05
2022-10-31T01:02:40.091Z,1014.02
2022-10-31T01:03:39.955Z,1014.03
2022-10-31T01:04:39.959Z,1014.05
2022-10-31T01:05:39.980Z,1014.03
2022-10-31T01:06:39.948Z,1014.03
2022-10-31T01:07:39.978Z,1014.05
2022-10-31T01:08:39.951Z,1014.02
2022-10-31T01:09:39.996Z,1014.03
2022-10-31T01:10:39.958Z,1014.06
2022-10-31T01:11:39.935Z,1014.01
2022-10-31T01:12:39.957Z,1014.03
2022-10-31T01:13:39.937Z,1014.03
2022-10-31T01:14:39.945Z,1014.05
2022-10-31T01:15:39.963Z,1014.05
2022-10-31T01:16:39.939Z,1014.08
2022-10-31T01:17:39.950Z,1014.00
2022-10-31T01:18:39.968Z,1014.02
2022-10-31T01:19:39.960Z,1014.05
2022-10-31T01:20:39.943Z,1014.04
2022-10-31T01:21:39.949Z,1014.05
2022-10-31T01:22:39.948Z,1014.05
2022-10-31T01:23:39.951Z,1014.08
2022-10-31T01:24:39.959Z,1014.09
2022-10-31T01:25:39.937Z,1014.06
2022-10-31T01:26:39.947Z,1014.03
2022-10-31T01:27:39.947Z,1014.05
2022-10-31T01:28:39.941Z,1014.05
2022-10-31T01:29:39.960Z,1014.04
2022-10-31T01:30:39.951Z,1014.09
2022-10-31T01:31:39.959Z,1014.09
2022-10-31T01:32:39.933Z,1014.09
2022-10-31T01:33:39.941Z,1014.07
2022-10-31T01:34:39.977Z,1014.08
2022-10-31T01:35:39.953Z,1014.04
2022-10-31T01:36:39.945Z,1014.08
2022-10-31T01:37:39.949Z,1014.09
2022-10-31T01:38:39.943Z,1014.14
2022-10-31T01:39:39.948Z,1014.14
2022-10-31T01:40:39.963Z,1014.12
2022-10-31T01:41:39.953Z,1014.12
2022-10-31T01:42:39.979Z,1014.14
2022-10-31T01:43:39.956Z,1014.10
2022-10-31T01:44:47.954Z,1014.02
2022-10-31T01:45:39.938Z,1014.04
2022-10-31T01:46:39.944Z,1014.03
2022-10-31T01:47:39.928Z,1014.07
2022-10-31T01:48:40.067Z,1014.06
2022-10-31T01:49:39.930Z,1014.06
2022-10-31T01:50:39.939Z,1014.06
2022-10-31T01:51:39.938Z,1014.11
2022-10-31T01:52:39.959Z,1014.10
2022-10-31T01:53:39.924Z,1014.14
2022-10-31T01:54:39.939Z,1014.14
2022-10-31T01:55:39.950Z,1014.15
2022-10-31T01:56:39.961Z,1014.14
2022-10-31T01:57:39.941Z,1014.14
2022-10-31T01:58:39.955Z,1014.18
2022-10-31T01:59:39.942Z,1014.20
2022-10-31T02:00:39.936Z,1014.21
2022-10-31T02:01:40.061Z,1014.16
2022-10-31T02:02:40.074Z,1014.13
2022-10-31T02:03:39.928Z,1014.18
2022-10-31T02:04:39.943Z,1014.17
2022-10-31T02:05:39.939Z,1014.14
2022-10-31T02:06:39.940Z,1014.13
2022-10-31T02:07:39.937Z,1014.11
2022-10-31T02:08:39.957Z,1014.10
2022-10-31T02:09:39.947Z,1014.09
2022-10-31T02:10:39.924Z,1014.10
2022-10-31T02:11:39.928Z,1014.13
2022-10-31T02:12:39.951Z,1014.12
2022-10-31T02:13:39.923Z,1014.13
2022-10-31T02:14:39.926Z,1014.15
2022-10-31T02:15:39.943Z,1014.11
2022-10-31T02:16:39.924Z,1014.15
2022-10-31T02:17:39.973Z,1014.16
2022-10-31T02:18:39.924Z,1014.12
2022-10-31T02:19:39.945Z,1014.16
2022-10-31T02:20:39.933Z,1014.15
2022-10-31T02:21:39.923Z,1014.16
2022-10-31T02:22:39.936Z,1014.19
2022-10-31T02:23:39.930Z,1014.16
2022-10-31T02:24:39.936Z,1014.12
2022-10-31T02:25:39.940Z,1014.10
2022-10-31T02:26:39.935Z,1014.14
2022-10-31T02:27:39.933Z,1014.16
2022-10-31T02:28:39.929Z,1014.17
2022-10-31T02:29:39.944Z,1014.16
2022-10-31T02:30:39.943Z,1014.16
2022-10-31T02:31:39.936Z,1014.13
2022-10-31T02:32:39.935Z,1014.13
2022-10-31T02:33:39.926Z,1014.18
2022-10-31T02:34:39.950Z,1014.17
2022-10-31T02:35:39.937Z,1014.16
2022-10-31T02:36:39.934Z,1014.18
2022-10-31T02:37:39.930Z,1014.20
2022-10-31T02:38:39.923Z,1014.19
2022-10-31T02:39:39.935Z,1014.23
2022-10-31T02:40:39.931Z,1014.22
2022-10-31T02:41:39.951Z,1014.21
2022-10-31T02:42:39.956Z,1014.25
2022-10-31T02:43:39.922Z,1014.22
2022-10-31T02:44:39.934Z,1014.26
2022-10-31T02:45:39.925Z,1014.32
2022-10-31T02:46:39.933Z,1014.32
2022-10-31T02:47:39.949Z,1014.33
2022-10-31T02:48:39.930Z,1014.27
2022-10-31T02:49:39.937Z,1014.33
2022-10-31T02:50:39.933Z,1014.35
2022-10-31T02:51:39.952Z,1014.31
2022-10-31T02:52:39.931Z,1014.34
2022-10-31T02:53:39.931Z,1014.32
2022-10-31T02:54:39.925Z,1014.38
2022-10-31T02:55:39.944Z,1014.31
2022-10-31T02:56:39.931Z,1014.36
2022-10-31T02:57:39.919Z,1014.33
2022-10-31T02:58:39.928Z,1014.34
2022-10-31T02:59:39.937Z,1014.39
2022-10-31T03:00:39.917Z,1014.37
2022-10-31T03:01:39.993Z,1014.36
2022-10-31T03:02:40.066Z,1014.37
2022-10-31T03:03:39.931Z,1014.40
2022-10-31T03:04:39.935Z,1014.38
2022-10-31T03:05:39.941Z,1014.42
2022-10-31T03:06:39.930Z,1014.42
2022-10-31T03:07:39.934Z,1014.43
2022-10-31T03:08:39.933Z,1014.47
2022-10-31T03:09:39.937Z,1014.46
2022-10-31T03:10:39.933Z,1014.46
2022-10-31T03:11:39.935Z,1014.48
2022-10-31T03:12:43.144Z,1014.50
2022-10-31T03:13:39.946Z,1014.44
2022-10-31T03:14:39.917Z,1014.52
2022-10-31T03:15:39.919Z,1014.46
2022-10-31T03:16:39.921Z,1014.52
2022-10-31T03:17:39.937Z,1014.54
2022-10-31T03:18:39.920Z,1014.53
2022-10-31T03:19:39.942Z,1014.49
2022-10-31T03:20:39.922Z,1014.53
2022-10-31T03:21:39.924Z,1014.49
2022-10-31T03:22:39.927Z,1014.52
2022-10-31T03:23:39.931Z,1014.52
2022-10-31T03:24:39.939Z,1014.53
2022-10-31T03:25:39.926Z,1014.50
2022-10-31T03:26:39.917Z,1014.56
2022-10-31T03:27:39.928Z,1014.56
2022-10-31T03:28:39.919Z,1014.58
2022-10-31T03:29:39.938Z,1014.60
2022-10-31T03:30:39.914Z,1014.62
2022-10-31T03:31:39.918Z,1014.61
2022-10-31T03:32:39.927Z,1014.61
2022-10-31T03:33:39.926Z,1014.60
2022-10-31T03:34:39.939Z,1014.61
2022-10-31T03:35:39.924Z,1014.60
2022-10-31T03:36:39.934Z,1014.64
2022-10-31T03:37:39.920Z,1014.66
2022-10-31T03:38:39.933Z,1014.66
2022-10-31T03:39:39.920Z,1014.69
2022-10-31T03:40:39.937Z,1014.67
2022-10-31T03:41:39.926Z,1014.65
2022-10-31T03:42:39.945Z,1014.70
2022-10-31T03:43:39.921Z,1014.71
2022-10-31T03:44:39.913Z,1014.71
2022-10-31T03:45:39.913Z,1014.76
2022-10-31T03:46:39.946Z,1014.79
2022-10-31T03:47:39.910Z,1014.79
2022-10-31T03:48:39.912Z,1014.76
2022-10-31T03:49:39.919Z,1014.78
2022-10-31T03:50:39.921Z,1014.76
2022-10-31T03:51:39.921Z,1014.79
2022-10-31T03:52:39.926Z,1014.82
2022-10-31T03:53:39.914Z,1014.82
2022-10-31T03:54:39.911Z,1014.79
2022-10-31T03:55:39.931Z,1014.79
2022-10-31T03:56:39.911Z,1014.83
2022-10-31T03:57:39.909Z,1014.85
2022-10-31T03:58:39.919Z,1014.82
2022-10-31T03:59:39.908Z,1014.85
2022-10-31T04:00:39.923Z,1014.84
2022-10-31T04:01:40.038Z,1014.84
2022-10-31T04:02:40.080Z,1014.84
2022-10-31T04:03:39.917Z,1014.83
2022-10-31T04:04:39.926Z,1014.88
2022-10-31T04:05:39.924Z,1014.84
2022-10-31T04:06:39.941Z,1014.89
2022-10-31T04:07:39.928Z,1014.86
2022-10-31T04:08:39.908Z,1014.84
2022-10-31T04:09:39.906Z,1014.89
2022-10-31T04:10:39.907Z,1014.86
2022-10-31T04:11:39.900Z,1014.87
2022-10-31T04:12:39.919Z,1014.87
2022-10-31T04:13:39.925Z,1014.86
2022-10-31T04:14:39.914Z,1014.88
2022-10-31T04:15:39.928Z,1014.84
2022-10-31T04:16:39.921Z,1014.83
2022-10-31T04:17:39.906Z,1014.83
2022-10-31T04:18:39.921Z,1014.83
2022-10-31T04:19:39.911Z,1014.83
2022-10-31T04:20:39.909Z,1014.83
2022-10-31T04:21:39.900Z,1014.88
2022-10-31T04:22:39.914Z,1014.89
2022-10-31T04:23:39.907Z,1014.92
2022-10-31T04:24:39.901Z,1014.88
2022-10-31T04:25:39.910Z,1014.90
2022-10-31T04:26:39.912Z,1014.88
2022-10-31T04:27:39.910Z,1014.90
2022-10-31T04:28:39.914Z,1014.91
2022-10-31T04:29:39.908Z,1014.95
2022-10-31T04:30:39.903Z,1014.91
2022-10-31T04:31:39.906Z,1014.97
2022-10-31T04:32:39.911Z,1014.94
2022-10-31T04:33:39.894Z,1014.93
2022-10-31T04:34:39.895Z,1014.94
2022-10-31T04:35:39.905Z,1014.97
2022-10-31T04:36:39.932Z,1014.94
2022-10-31T04:37:39.906Z,1014.95
2022-10-31T04:38:39.913Z,1014.99
2022-10-31T04:39:39.904Z,1014.99
2022-10-31T04:40:39.901Z,1014.99
2022-10-31T04:41:39.894Z,1014.98
2022-10-31T04:42:39.901Z,1014.98
2022-10-31T04:43:39.906Z,1015.00
2022-10-31T04:44:39.915Z,1014.96
2022-10-31T04:45:39.892Z,1014.98
2022-10-31T04:46:39.889Z,1014.98
2022-10-31T04:47:39.916Z,1014.99
2022-10-31T04:48:39.901Z,1015.00
2022-10-31T04:49:39.893Z,1015.00
2022-10-31T04:50:39.885Z,1015.03
2022-10-31T04:51:39.884Z,1015.00
2022-10-31T04:52:39.931Z,1014.96
2022-10-31T04:53:39.885Z,1015.03
2022-10-31T04:54:39.898Z,1015.02
2022-10-31T04:55:39.895Z,1015.00
2022-10-31T04:56:39.897Z,1014.96
2022-10-31T04:57:39.909Z,1014.99
2022-10-31T04:58:39.911Z,1015.02
2022-10-31T04:59:39.894Z,1015.02
2022-10-31T05:00:39.900Z,1015.02
2022-10-31T05:01:40.021Z,1015.00
2022-10-31T05:02:42.154Z,1014.99
2022-10-31T05:03:39.892Z,1015.06
2022-10-31T05:04:39.891Z,1014.99
2022-10-31T05:05:39.892Z,1015.06
2022-10-31T05:06:39.900Z,1015.04
2022-10-31T05:07:39.901Z,1015.03
2022-10-31T05:08:39.893Z,1015.04
2022-10-31T05:09:39.880Z,1015.08
2022-10-31T05:10:39.884Z,1015.05
2022-10-31T05:11:39.880Z,1015.07
2022-10-31T05:12:39.884Z,1015.07
2022-10-31T05:13:39.883Z,1015.06
2022-10-31T05:14:41.483Z,1015.07
2022-10-31T05:15:39.900Z,1015.07
2022-10-31T05:16:39.885Z,1015.09
2022-10-31T05:17:39.898Z,1015.06
2022-10-31T05:18:39.884Z,1015.07
2022-10-31T05:19:39.938Z,1015.07
2022-10-31T05:20:39.871Z,1015.10
2022-10-31T05:21:39.896Z,1015.10
2022-10-31T05:22:39.879Z,1015.10
2022-10-31T05:23:44.386Z,1015.13
2022-10-31T05:24:39.938Z,1015.20
2022-10-31T05:25:39.892Z,1015.15
2022-10-31T05:26:39.867Z,1015.14
2022-10-31T05:27:39.878Z,1015.12
2022-10-31T05:28:39.900Z,1015.13
2022-10-31T05:29:39.869Z,1015.12
2022-10-31T05:30:39.870Z,1015.12
2022-10-31T05:31:39.890Z,1015.18
2022-10-31T05:32:39.881Z,1015.12
2022-10-31T05:33:39.861Z,1015.18
2022-10-31T05:34:39.874Z,1015.15
2022-10-31T05:35:39.911Z,1015.14
2022-10-31T05:36:39.890Z,1015.19
2022-10-31T05:37:39.858Z,1015.21
2022-10-31T05:38:39.860Z,1015.19
2022-10-31T05:39:39.868Z,1015.18
2022-10-31T05:40:39.883Z,1015.18
2022-10-31T05:41:39.869Z,1015.19
2022-10-31T05:42:39.937Z,1015.14
2022-10-31T05:43:39.870Z,1015.19
2022-10-31T05:44:39.860Z,1015.19
2022-10-31T05:45:39.869Z,1015.21
2022-10-31T05:46:39.873Z,1015.22
2022-10-31T05:47:39.853Z,1015.20
2022-10-31T05:48:39.863Z,1015.19
2022-10-31T05:49:39.872Z,1015.21
2022-10-31T05:50:39.868Z,1015.22
2022-10-31T05:51:39.866Z,1015.25
2022-10-31T05:52:39.863Z,1015.20
2022-10-31T05:53:39.859Z,1015.21
2022-10-31T05:54:39.869Z,1015.25
2022-10-31T05:55:39.856Z,1015.23
2022-10-31T05:56:39.864Z,1015.26
2022-10-31T05:57:39.866Z,1015.24
2022-10-31T05:58:39.851Z,1015.27
2022-10-31T05:59:39.855Z,1015.29
2022-10-31T06:00:39.853Z,1015.28
2022-10-31T06:01:39.933Z,1015.29
2022-10-31T06:02:39.848Z,1015.31
2022-10-31T06:03:39.895Z,1015.27
2022-10-31T06:04:39.890Z,1015.28
2022-10-31T06:05:39.841Z,1015.31
2022-10-31T06:06:39.867Z,1015.30
2022-10-31T06:07:39.846Z,1015.31
2022-10-31T06:08:39.855Z,1015.33
2022-10-31T06:09:39.852Z,1015.32
2022-10-31T06:10:39.841Z,1015.36
2022-10-31T06:11:39.857Z,1015.34
2022-10-31T06:12:39.850Z,1015.34
2022-10-31T06:13:39.878Z,1015.34
2022-10-31T06:14:39.849Z,1015.28
2022-10-31T06:15:39.863Z,1015.30
2022-10-31T06:16:39.848Z,1015.31
2022-10-31T06:17:39.837Z,1015.40
2022-10-31T06:18:39.854Z,1015.37
2022-10-31T06:19:39.892Z,1015.32
2022-10-31T06:20:39.847Z,1015.32
2022-10-31T06:21:39.849Z,1015.39
2022-10-31T06:22:39.854Z,1015.40
2022-10-31T06:23:39.852Z,1015.43
2022-10-31T06:24:39.855Z,1015.41
2022-10-31T06:25:39.839Z,1015.43
2022-10-31T06:26:39.846Z,1015.43
2022-10-31T06:27:39.838Z,1015.41
2022-10-31T06:28:39.826Z,1015.42
2022-10-31T06:29:39.850Z,1015.49
2022-10-31T06:30:39.846Z,1015.50
2022-10-31T06:31:39.837Z,1015.48
2022-10-31T06:32:39.854Z,1015.55
2022-10-31T06:33:39.825Z,1015.55
2022-10-31T06:34:39.829Z,1015.60
2022-10-31T06:35:39.851Z,1015.59
2022-10-31T06:36:39.853Z,1015.58
2022-10-31T06:37:39.838Z,1015.60
2022-10-31T06:38:39.832Z,1015.64
2022-10-31T06:39:39.844Z,1015.62
2022-10-31T06:40:39.823Z,1015.56
2022-10-31T06:41:39.825Z,1015.61
2022-10-31T06:42:39.830Z,1015.61
2022-10-31T06:43:39.835Z,1015.60
2022-10-31T06:44:39.823Z,1015.65
2022-10-31T06:45:39.879Z,1015.65
2022-10-31T06:46:39.828Z,1015.61
2022-10-31T06:47:50.932Z,1015.64
2022-10-31T06:48:39.827Z,1015.69
2022-10-31T06:49:39.820Z,1015.68
2022-10-31T06:50:39.815Z,1015.67
2022-10-31T06:51:39.821Z,1015.66
2022-10-31T06:52:39.850Z,1015.68
2022-10-31T06:53:39.826Z,1015.69
2022-10-31T06:54:39.849Z,1015.69
2022-10-31T06:55:39.821Z,1015.67
2022-10-31T06:56:39.820Z,1015.69
2022-10-31T06:57:39.816Z,1015.69
2022-10-31T06:58:39.830Z,1015.67
2022-10-31T06:59:39.825Z,1015.72
2022-10-31T07:00:39.885Z,1015.70
2022-10-31T07:01:40.007Z,1015.74
2022-10-31T07:02:39.809Z,1015.77
2022-10-31T07:03:39.823Z,1015.81
2022-10-31T07:04:39.808Z,1015.80
2022-10-31T07:05:39.818Z,1015.83
2022-10-31T07:06:39.810Z,1015.87
2022-10-31T07:07:39.840Z,1015.89
2022-10-31T07:08:39.804Z,1015.92
2022-10-31T07:09:39.830Z,1015.93
2022-10-31T07:10:40.748Z,1015.94
2022-10-31T07:11:39.817Z,1015.98
2022-10-31T07:12:39.819Z,1015.92
2022-10-31T07:13:39.839Z,1015.91
2022-10-31T07:14:39.805Z,1015.93
2022-10-31T07:15:39.815Z,1015.93
2022-10-31T07:16:39.842Z,1015.94
2022-10-31T07:17:39.805Z,1015.85
2022-10-31T07:18:39.810Z,1015.85
2022-10-31T07:19:39.807Z,1015.90
2022-10-31T07:20:39.808Z,1015.93
2022-10-31T07:21:39.814Z,1015.95
2022-10-31T07:22:39.826Z,1016.05
2022-10-31T07:23:39.825Z,1016.01
2022-10-31T07:24:39.804Z,1016.01
2022-10-31T07:25:39.811Z,1016.05
2022-10-31T07:26:39.805Z,1016.01
2022-10-31T07:27:42.654Z,1016.03
2022-10-31T07:28:39.844Z,1016.06
2022-10-31T07:29:39.804Z,1016.07
2022-10-31T07:30:39.812Z,1016.08
2022-10-31T07:31:39.801Z,1016.07
2022-10-31T07:32:39.814Z,1016.08
2022-10-31T07:33:39.812Z,1016.04
2022-10-31T07:34:44.866Z,1016.04
2022-10-31T07:35:39.802Z,1016.04
2022-10-31T07:36:39.806Z,1016.05
2022-10-31T07:37:39.817Z,1016.07
2022-10-31T07:38:39.808Z,1016.08
2022-10-31T07:39:39.819Z,1016.08
2022-10-31T07:40:39.807Z,1016.11
2022-10-31T07:41:39.824Z,1016.10
2022-10-31T07:42:39.809Z,1016.11
2022-10-31T07:43:39.844Z,1016.10
2022-10-31T07:44:49.026Z,1016.08
2022-10-31T07:45:39.837Z,1016.15
2022-10-31T07:46:39.947Z,1016.15
2022-10-31T07:47:39.852Z,1016.15
2022-10-31T07:48:40.659Z,1016.18
2022-10-31T07:49:40.462Z,1016.22
2022-10-31T07:50:39.828Z,1016.20
2022-10-31T07:51:45.552Z,1016.19
2022-10-31T07:52:39.830Z,1016.21
2022-10-31T07:53:39.830Z,1016.23
2022-10-31T07:54:39.882Z,1016.23
2022-10-31T07:55:39.829Z,1016.22
2022-10-31T07:56:39.839Z,1016.26
2022-10-31T07:57:39.832Z,1016.23
2022-10-31T07:58:39.832Z,1016.26
2022-10-31T07:59:39.869Z,1016.23
2022-10-31T08:00:39.907Z,1016.25
2022-10-31T08:01:39.879Z,1016.17
2022-10-31T08:02:40.002Z,1016.21
2022-10-31T08:03:39.865Z,1016.23
2022-10-31T08:04:39.847Z,1016.27
2022-10-31T08:05:39.851Z,1016.28
2022-10-31T08:06:39.873Z,1016.23
2022-10-31T08:07:40.228Z,1016.21
2022-10-31T08:08:39.894Z,1016.25
2022-10-31T08:09:39.870Z,1016.21
2022-10-31T08:10:39.865Z,1016.28
2022-10-31T08:11:39.860Z,1016.24
2022-10-31T08:12:39.864Z,1016.25
2022-10-31T08:13:39.862Z,1016.29
2022-10-31T08:14:39.916Z,1016.32
2022-10-31T08:15:39.868Z,1016.36
2022-10-31T08:16:39.876Z,1016.32
2022-10-31T08:17:39.877Z,1016.35
2022-10-31T08:18:39.865Z,1016.40
2022-10-31T08:19:39.883Z,1016.38
2022-10-31T08:20:39.908Z,1016.36
2022-10-31T08:21:39.886Z,1016.39
2022-10-31T08:22:42.830Z,1016.40
2022-10-31T08:23:39.885Z,1016.39
2022-10-31T08:25:39.902Z,1016.38
2022-10-31T08:26:39.943Z,1016.39
2022-10-31T08:27:39.923Z,1016.39
2022-10-31T08:28:39.910Z,1016.42
2022-10-31T08:29:39.908Z,1016.44
2022-10-31T08:30:39.899Z,1016.40
2022-10-31T08:31:42.851Z,1016.36
2022-10-31T08:32:39.889Z,1016.36
2022-10-31T08:33:39.899Z,1016.40
2022-10-31T08:34:39.916Z,1016.39
2022-10-31T08:35:39.903Z,1016.38
2022-10-31T08:36:39.915Z,1016.37
2022-10-31T08:37:39.932Z,1016.38
2022-10-31T08:38:39.903Z,1016.42
2022-10-31T08:39:39.917Z,1016.45
2022-10-31T08:40:39.924Z,1016.45
2022-10-31T08:41:39.913Z,1016.45
2022-10-31T08:42:39.923Z,1016.44
2022-10-31T08:43:41.061Z,1016.44
2022-10-31T08:44:42.626Z,1016.39
2022-10-31T08:45:39.944Z,1016.40
2022-10-31T08:46:39.932Z,1016.37
2022-10-31T08:47:39.948Z,1016.39
2022-10-31T08:48:39.936Z,1016.38
2022-10-31T08:49:39.957Z,1016.30
2022-10-31T08:50:42.037Z,1016.38
2022-10-31T08:51:39.925Z,1016.37
2022-10-31T08:53:03.749Z,1016.39
2022-10-31T08:53:39.946Z,1016.38
2022-10-31T08:54:39.933Z,1016.44
2022-10-31T08:55:39.959Z,1016.43
2022-10-31T08:56:39.945Z,1016.41
2022-10-31T08:57:39.945Z,1016.45
2022-10-31T08:58:40.530Z,1016.51
2022-10-31T08:59:39.948Z,1016.53
2022-10-31T09:00:40.037Z,1016.56
2022-10-31T09:01:40.079Z,1016.55
2022-10-31T09:02:39.957Z,1016.52
2022-10-31T09:03:39.951Z,1016.55
2022-10-31T09:04:39.964Z,1016.57
2022-10-31T09:05:40.016Z,1016.59
2022-10-31T09:06:46.450Z,1016.58
2022-10-31T09:07:39.959Z,1016.54
2022-10-31T09:08:39.966Z,1016.57
2022-10-31T09:09:39.961Z,1016.58
2022-10-31T09:10:39.952Z,1016.58
2022-10-31T09:11:39.979Z,1016.55
2022-10-31T09:12:39.972Z,1016.63
2022-10-31T09:13:41.303Z,1016.61
2022-10-31T09:14:39.981Z,1016.61
2022-10-31T09:15:39.980Z,1016.58
2022-10-31T09:16:39.976Z,1016.57
2022-10-31T09:17:39.993Z,1016.58
2022-10-31T09:18:39.984Z,1016.63
2022-10-31T09:19:39.981Z,1016.60
2022-10-31T09:20:39.987Z,1016.69
2022-10-31T09:21:40.000Z,1016.66
2022-10-31T09:22:40.003Z,1016.64
2022-10-31T09:23:39.979Z,1016.69
2022-10-31T09:24:39.992Z,1016.67
2022-10-31T09:25:40.002Z,1016.64
2022-10-31T09:26:39.998Z,1016.69
2022-10-31T09:27:40.017Z,1016.70
2022-10-31T09:28:40.014Z,1016.67
2022-10-31T09:29:39.994Z,1016.71
2022-10-31T09:30:40.033Z,1016.64
2022-10-31T09:31:44.741Z,1016.63
2022-10-31T09:32:39.991Z,1016.66
2022-10-31T09:33:40.044Z,1016.66
2022-10-31T09:34:39.997Z,1016.71
2022-10-31T09:35:40.022Z,1016.72
2022-10-31T09:36:40.014Z,1016.77
2022-10-31T09:37:40.017Z,1016.73
2022-10-31T09:38:40.028Z,1016.78
2022-10-31T09:39:40.022Z,1016.79
2022-10-31T09:40:40.033Z,1016.78
2022-10-31T09:41:40.018Z,1016.77
2022-10-31T09:42:40.045Z,1016.84
2022-10-31T09:43:40.030Z,1016.88
2022-10-31T09:44:40.037Z,1016.86
2022-10-31T09:45:40.040Z,1016.88
2022-10-31T09:46:40.052Z,1016.82
2022-10-31T09:47:40.041Z,1016.82
2022-10-31T09:48:40.032Z,1016.80
2022-10-31T09:49:40.099Z,1016.82
2022-10-31T09:50:40.055Z,1016.79
2022-10-31T09:51:40.059Z,1016.74
2022-10-31T09:52:40.071Z,1016.72
2022-10-31T09:53:40.055Z,1016.72
2022-10-31T09:54:40.042Z,1016.71
2022-10-31T09:55:40.062Z,1016.73
2022-10-31T09:56:40.064Z,1016.72
2022-10-31T09:57:40.051Z,1016.79
2022-10-31T09:58:40.082Z,1016.83
2022-10-31T09:59:40.053Z,1016.89
2022-10-31T10:00:40.119Z,1016.88
2022-10-31T10:01:40.163Z,1016.87
2022-10-31T10:02:40.080Z,1016.95
2022-10-31T10:03:40.100Z,1016.92
2022-10-31T10:04:40.089Z,1016.84
2022-10-31T10:05:40.079Z,1016.86
2022-10-31T10:06:40.068Z,1016.82
2022-10-31T10:07:40.085Z,1016.82
2022-10-31T10:08:40.106Z,1016.78
2022-10-31T10:09:40.095Z,1016.87
2022-10-31T10:10:40.099Z,1016.84
2022-10-31T10:11:40.103Z,1016.79
2022-10-31T10:12:40.105Z,1016.79
2022-10-31T10:13:40.106Z,1016.76
2022-10-31T10:14:40.217Z,1016.78
2022-10-31T10:15:40.103Z,1016.71
2022-10-31T10:16:40.110Z,1016.70
2022-10-31T10:17:40.097Z,1016.70
2022-10-31T10:18:40.150Z,1016.69
2022-10-31T10:19:40.128Z,1016.67
2022-10-31T10:20:40.134Z,1016.70
2022-10-31T10:21:40.131Z,1016.70
2022-10-31T10:22:40.128Z,1016.68
2022-10-31T10:23:40.121Z,1016.68
2022-10-31T10:24:40.150Z,1016.61
2022-10-31T10:25:41.690Z,1016.62
2022-10-31T10:26:40.140Z,1016.62
2022-10-31T10:27:40.151Z,1016.61
2022-10-31T10:28:40.146Z,1016.63
2022-10-31T10:29:40.155Z,1016.57
2022-10-31T10:30:40.149Z,1016.64
2022-10-31T10:31:40.169Z,1016.61
2022-10-31T10:32:40.147Z,1016.60
2022-10-31T10:33:40.156Z,1016.59
2022-10-31T10:34:40.167Z,1016.59
2022-10-31T10:35:40.171Z,1016.53
2022-10-31T10:36:40.190Z,1016.59
2022-10-31T10:37:40.190Z,1016.56
2022-10-31T10:38:40.159Z,1016.57
2022-10-31T10:39:40.186Z,1016.53
2022-10-31T10:40:40.194Z,1016.53
2022-10-31T10:41:40.181Z,1016.51
2022-10-31T10:42:40.201Z,1016.51
2022-10-31T10:43:40.282Z,1016.51
2022-10-31T10:44:40.193Z,1016.50
2022-10-31T10:45:40.191Z,1016.53
2022-10-31T10:46:40.224Z,1016.54
2022-10-31T10:47:40.217Z,1016.53
2022-10-31T10:48:40.210Z,1016.53
2022-10-31T10:49:40.208Z,1016.56
2022-10-31T10:50:40.203Z,1016.56
2022-10-31T10:51:58.255Z,1016.58
2022-10-31T10:52:43.401Z,1016.57
2022-10-31T10:53:40.300Z,1016.60
2022-10-31T10:54:40.248Z,1016.64
2022-10-31T10:55:40.224Z,1016.65
2022-10-31T10:56:40.233Z,1016.63
2022-10-31T10:57:40.243Z,1016.62
2022-10-31T10:58:40.240Z,1016.63
2022-10-31T10:59:40.250Z,1016.63
2022-10-31T11:00:40.337Z,1016.59
2022-10-31T11:01:40.249Z,1016.60
2022-10-31T11:02:42.795Z,1016.57
2022-10-31T11:03:40.257Z,1016.54
2022-10-31T11:04:40.262Z,1016.56
2022-10-31T11:05:40.259Z,1016.49
2022-10-31T11:06:40.284Z,1016.53
2022-10-31T11:07:40.288Z,1016.54
2022-10-31T11:08:40.299Z,1016.56
2022-10-31T11:09:40.305Z,1016.54
2022-10-31T11:10:40.277Z,1016.52
2022-10-31T11:11:40.302Z,1016.51
2022-10-31T11:12:40.281Z,1016.55
2022-10-31T11:13:40.288Z,1016.54
2022-10-31T11:14:40.301Z,1016.48
2022-10-31T11:15:40.310Z,1016.47
2022-10-31T11:16:41.530Z,1016.47
2022-10-31T11:17:40.341Z,1016.43
2022-10-31T11:18:40.314Z,1016.38
2022-10-31T11:19:40.324Z,1016.41
2022-10-31T11:20:40.316Z,1016.37
2022-10-31T11:21:40.336Z,1016.36
2022-10-31T11:22:40.343Z,1016.43
2022-10-31T11:23:40.372Z,1016.37
2022-10-31T11:24:40.331Z,1016.35
2022-10-31T11:25:40.342Z,1016.34
2022-10-31T11:26:40.365Z,1016.36
2022-10-31T11:27:40.346Z,1016.34
2022-10-31T11:28:40.361Z,1016.31
2022-10-31T11:29:40.368Z,1016.35
2022-10-31T11:30:40.364Z,1016.28
2022-10-31T11:31:40.402Z,1016.32
2022-10-31T11:32:40.375Z,1016.30
2022-10-31T11:33:40.393Z,1016.33
2022-10-31T11:34:40.400Z,1016.25
2022-10-31T11:35:40.411Z,1016.22
2022-10-31T11:36:40.445Z,1016.24
2022-10-31T11:37:40.399Z,1016.25
2022-10-31T11:38:40.400Z,1016.23
2022-10-31T11:39:40.403Z,1016.25
2022-10-31T11:40:40.405Z,1016.18
2022-10-31T11:41:40.416Z,1016.21
2022-10-31T11:42:47.971Z,1016.18
2022-10-31T11:43:48.731Z,1016.26
2022-10-31T11:44:48.753Z,1016.26
2022-10-31T11:45:48.771Z,1016.25
2022-10-31T11:46:48.795Z,1016.26
2022-10-31T11:47:40.464Z,1016.27
2022-10-31T11:48:48.818Z,1016.27
2022-10-31T11:49:48.883Z,1016.27
2022-10-31T11:52:20.178Z,1016.22
2022-10-31T11:53:20.267Z,1016.23
2022-10-31T11:54:21.143Z,1016.17
2022-10-31T11:55:20.768Z,1016.16
2022-10-31T11:56:20.813Z,1016.18
2022-10-31T11:57:20.813Z,1016.17
2022-10-31T11:58:20.869Z,1016.18
2022-10-31T11:59:20.171Z,1016.17
2022-10-31T12:00:21.024Z,1016.20
2022-10-31T12:01:21.221Z,1016.18
2022-10-31T12:02:12.703Z,1016.20
2022-10-31T12:03:24.162Z,1016.18
2022-10-31T12:04:22.215Z,1016.17
2022-10-31T12:05:12.569Z,1016.18
2022-10-31T12:06:12.573Z,1016.17
2022-10-31T12:07:12.593Z,1016.17
2022-10-31T12:08:12.569Z,1016.14